createdAt,value
2019-04-13T00:00:50.333Z,5.90
2019-04-13T00:03:36.756Z,6.70
2019-04-13T00:06:30.856Z,5.50
2019-04-13T00:09:18.174Z,6.20
2019-04-13T00:12:32.934Z,6.53
2019-04-13T00:15:19.614Z,7.67
2019-04-13T00:18:06.134Z,8.13
2019-04-13T00:20:52.573Z,6.67
2019-04-13T00:23:38.914Z,7.33
2019-04-13T00:26:24.953Z,6.87
2019-04-13T00:29:11.133Z,7.10
2019-04-13T00:31:57.193Z,6.00
2019-04-13T00:34:43.480Z,7.33
2019-04-13T00:37:29.695Z,6.80
2019-04-13T00:40:15.754Z,6.67
2019-04-13T00:43:01.977Z,7.70
2019-04-13T00:45:48.714Z,7.37
2019-04-13T00:48:34.914Z,7.50
2019-04-13T00:51:20.955Z,6.53
2019-04-13T00:54:07.614Z,7.10
2019-04-13T00:56:56.375Z,7.40
2019-04-13T00:59:42.677Z,6.67
2019-04-13T01:02:28.879Z,7.23
2019-04-13T01:05:14.938Z,6.37
2019-04-13T01:08:01.093Z,7.53
2019-04-13T01:10:47.453Z,6.93
2019-04-13T01:13:33.554Z,7.03
2019-04-13T01:16:19.595Z,7.40
2019-04-13T01:19:05.874Z,7.10
2019-04-13T01:21:51.934Z,7.23
2019-04-13T01:24:38.274Z,7.50
2019-04-13T01:27:24.334Z,7.87
2019-04-13T01:30:11.013Z,7.73
2019-04-13T01:32:57.254Z,8.30
2019-04-13T01:35:43.775Z,7.97
2019-04-13T01:38:30.274Z,7.80
2019-04-13T01:41:16.473Z,8.20
2019-04-13T01:44:02.657Z,8.50
2019-04-13T01:46:49.335Z,8.57
2019-04-13T01:49:35.574Z,8.73
2019-04-13T01:52:22.154Z,8.47
2019-04-13T01:55:09.073Z,8.07
2019-04-13T01:57:55.554Z,8.57
2019-04-13T02:00:50.174Z,7.80
2019-04-13T02:03:40.508Z,8.50
2019-04-13T02:06:26.913Z,9.00
2019-04-13T02:09:23.354Z,8.20
2019-04-13T02:12:09.614Z,8.67
2019-04-13T02:14:55.654Z,9.07
2019-04-13T02:17:42.474Z,7.97
2019-04-13T02:20:28.834Z,8.27
2019-04-13T02:23:14.933Z,8.60
2019-04-13T02:26:01.674Z,8.77
2019-04-13T02:28:47.613Z,8.60
2019-04-13T02:31:33.896Z,8.47
2019-04-13T02:34:19.994Z,8.43
2019-04-13T02:37:06.116Z,8.77
2019-04-13T02:39:52.276Z,8.03
2019-04-13T02:42:38.475Z,7.60
2019-04-13T02:45:24.597Z,9.23
2019-04-13T02:48:10.814Z,7.97
2019-04-13T02:50:56.776Z,8.77
2019-04-13T02:53:42.755Z,8.37
2019-04-13T02:56:28.914Z,8.53
2019-04-13T02:59:15.233Z,8.33
2019-04-13T03:02:01.802Z,7.37
2019-04-13T03:04:47.816Z,8.30
2019-04-13T03:07:34.013Z,7.50
2019-04-13T03:10:20.274Z,7.03
2019-04-13T03:13:06.394Z,7.17
2019-04-13T03:16:30.674Z,8.57
2019-04-13T03:19:32.413Z,6.70
2019-04-13T03:22:18.894Z,7.20
2019-04-13T03:25:05.273Z,7.23
2019-04-13T03:27:51.393Z,7.30
2019-04-13T03:30:39.057Z,7.70
2019-04-13T03:33:25.275Z,7.83
2019-04-13T03:36:11.533Z,6.67
2019-04-13T03:38:57.718Z,7.50
2019-04-13T03:41:44.534Z,8.10
2019-04-13T03:44:30.794Z,7.07
2019-04-13T03:47:17.433Z,7.47
2019-04-13T03:50:04.065Z,6.60
2019-04-13T03:52:50.133Z,6.60
2019-04-13T03:55:36.654Z,7.27
2019-04-13T03:58:27.054Z,6.77
2019-04-13T04:01:13.455Z,8.03
2019-04-13T04:03:59.693Z,6.43
2019-04-13T04:06:45.733Z,7.20
2019-04-13T04:09:31.954Z,7.60
2019-04-13T04:12:18.154Z,7.57
2019-04-13T04:15:05.334Z,7.10
2019-04-13T04:17:51.914Z,7.80
2019-04-13T04:20:38.294Z,7.80
2019-04-13T04:23:24.293Z,8.07
2019-04-13T04:26:10.534Z,7.90
2019-04-13T04:28:56.693Z,7.70
2019-04-13T04:31:45.654Z,8.73
2019-04-13T04:34:31.854Z,7.97
2019-04-13T04:37:17.993Z,8.43
2019-04-13T04:40:04.714Z,9.17
2019-04-13T04:42:51.014Z,9.40
2019-04-13T04:45:37.255Z,8.57
2019-04-13T04:48:23.402Z,8.67
2019-04-13T04:51:11.329Z,9.80
2019-04-13T04:53:57.891Z,8.73
2019-04-13T04:56:44.016Z,10.23
2019-04-13T04:59:30.303Z,10.13
2019-04-13T05:02:17.103Z,9.33
2019-04-13T05:05:03.434Z,10.23
2019-04-13T05:07:49.897Z,10.03
2019-04-13T05:10:36.214Z,10.87
2019-04-13T05:13:22.554Z,10.27
2019-04-13T05:16:09.433Z,10.17
2019-04-13T05:18:55.933Z,11.40
2019-04-13T05:21:43.833Z,11.57
2019-04-13T05:24:30.213Z,10.13
2019-04-13T05:27:16.654Z,14.57
2019-04-13T05:30:02.654Z,10.57
2019-04-13T05:32:48.813Z,12.00
2019-04-13T05:35:35.214Z,13.07
2019-04-13T05:38:21.214Z,10.87
2019-04-13T05:41:07.634Z,12.83
2019-04-13T05:43:54.193Z,9.70
2019-04-13T05:46:40.423Z,12.60
2019-04-13T05:49:26.337Z,11.20
2019-04-13T05:52:12.574Z,12.57
2019-04-13T05:54:58.554Z,11.90
2019-04-13T05:57:44.933Z,12.90
2019-04-13T06:00:31.296Z,12.37
2019-04-13T06:03:17.614Z,11.37
2019-04-13T06:06:04.474Z,13.23
2019-04-13T06:08:51.194Z,11.60
2019-04-13T06:11:38.074Z,10.80
2019-04-13T06:14:24.675Z,12.10
2019-04-13T06:17:10.854Z,9.90
2019-04-13T06:19:57.454Z,10.77
2019-04-13T06:22:46.835Z,10.43
2019-04-13T06:25:31.782Z,11.27
2019-04-13T06:28:17.973Z,9.30
2019-04-13T06:31:24.316Z,11.03
2019-04-13T06:34:20.814Z,10.77
2019-04-13T06:37:12.338Z,9.70
2019-04-13T06:39:55.413Z,10.57
2019-04-13T06:42:41.554Z,10.80
2019-04-13T06:45:27.953Z,9.60
2019-04-13T06:48:14.294Z,11.20
2019-04-13T06:51:00.794Z,11.83
2019-04-13T06:53:47.113Z,11.33
2019-04-13T06:56:46.406Z,11.77
2019-04-13T06:59:36.361Z,11.40
2019-04-13T07:02:22.373Z,11.13
2019-04-13T07:05:08.613Z,11.20
2019-04-13T07:08:06.454Z,11.80
2019-04-13T07:11:13.102Z,14.20
2019-04-13T07:14:01.574Z,12.77
2019-04-13T07:16:52.033Z,12.80
2019-04-13T07:19:41.484Z,13.17
2019-04-13T07:22:26.954Z,12.60
2019-04-13T07:25:15.054Z,12.47
2019-04-13T07:28:01.906Z,12.83
2019-04-13T07:30:49.081Z,12.30
2019-04-13T07:33:35.833Z,13.03
2019-04-13T07:36:22.589Z,11.10
2019-04-13T07:39:09.313Z,11.90
2019-04-13T07:41:55.995Z,11.60
2019-04-13T07:44:50.554Z,11.83
2019-04-13T07:48:08.313Z,13.03
2019-04-13T07:51:08.254Z,14.33
2019-04-13T07:53:54.495Z,12.07
2019-04-13T07:56:40.814Z,12.83
2019-04-13T07:59:27.355Z,10.30
2019-04-13T08:02:14.914Z,14.13
2019-04-13T08:05:01.307Z,12.93
2019-04-13T08:07:49.931Z,12.70
2019-04-13T08:10:36.216Z,13.60
2019-04-13T08:13:22.394Z,12.03
2019-04-13T08:16:09.593Z,12.67
2019-04-13T08:19:03.973Z,14.27
2019-04-13T08:21:50.494Z,11.57
2019-04-13T08:24:36.613Z,16.43
2019-04-13T08:27:22.894Z,14.07
2019-04-13T08:30:10.109Z,12.90
2019-04-13T08:32:56.654Z,12.30
2019-04-13T08:35:43.282Z,14.60
2019-04-13T08:38:29.803Z,12.77
2019-04-13T08:41:20.191Z,14.73
2019-04-13T08:44:05.989Z,15.03
2019-04-13T08:46:53.034Z,17.20
2019-04-13T08:49:39.354Z,15.70
2019-04-13T08:52:25.954Z,15.30
2019-04-13T08:55:12.174Z,13.13
2019-04-13T08:57:58.534Z,11.83
2019-04-13T09:00:44.775Z,13.93
2019-04-13T09:03:30.894Z,14.73
2019-04-13T09:06:17.476Z,12.03
2019-04-13T09:09:06.234Z,15.70
2019-04-13T09:11:52.094Z,13.20
2019-04-13T09:14:38.434Z,12.67
2019-04-13T09:17:26.786Z,13.33
2019-04-13T09:20:37.328Z,12.97
2019-04-13T09:23:23.834Z,14.33
2019-04-13T09:26:11.341Z,15.90
2019-04-13T09:28:58.054Z,16.97
2019-04-13T09:31:45.155Z,13.67
2019-04-13T09:34:34.660Z,14.73
2019-04-13T09:37:19.374Z,15.33
2019-04-13T09:40:07.054Z,14.83
2019-04-13T09:42:53.434Z,14.27
2019-04-13T09:45:39.675Z,12.40
2019-04-13T09:48:26.134Z,13.20
2019-04-13T09:51:12.656Z,15.43
2019-04-13T09:53:58.934Z,13.37
2019-04-13T09:56:45.053Z,13.40
2019-04-13T09:59:31.274Z,13.47
2019-04-13T10:02:17.434Z,13.00
2019-04-13T10:05:03.656Z,13.13
2019-04-13T10:07:50.195Z,15.03
2019-04-13T10:10:36.374Z,14.10
2019-04-13T10:13:46.084Z,13.33
2019-04-13T10:16:57.994Z,14.03
2019-04-13T10:19:44.595Z,14.47
2019-04-13T10:22:31.088Z,13.30
2019-04-13T10:25:17.214Z,13.50
2019-04-13T10:28:03.294Z,14.30
2019-04-13T10:30:53.470Z,13.47
2019-04-13T10:33:37.674Z,17.27
2019-04-13T10:36:24.134Z,14.97
2019-04-13T10:39:13.377Z,16.83
2019-04-13T10:41:59.913Z,18.77
2019-04-13T10:44:53.054Z,16.10
2019-04-13T10:48:04.815Z,18.27
2019-04-13T10:50:59.423Z,12.63
2019-04-13T10:53:45.657Z,15.50
2019-04-13T10:56:31.934Z,14.77
2019-04-13T10:59:18.237Z,14.37
2019-04-13T11:02:04.375Z,13.90
2019-04-13T11:04:50.954Z,14.30
2019-04-13T11:07:37.054Z,11.47
2019-04-13T11:10:23.194Z,13.73
2019-04-13T11:13:09.374Z,14.13
2019-04-13T11:15:55.993Z,14.77
2019-04-13T11:18:42.233Z,12.87
2019-04-13T11:21:29.836Z,13.37
2019-04-13T11:24:16.774Z,15.00
2019-04-13T11:27:04.095Z,13.00
2019-04-13T11:29:50.035Z,11.03
2019-04-13T11:32:36.482Z,14.40
2019-04-13T11:35:23.213Z,14.37
2019-04-13T11:38:09.533Z,14.13
2019-04-13T11:41:10.914Z,16.97
2019-04-13T11:44:21.672Z,15.43
2019-04-13T11:47:39.413Z,15.90
2019-04-13T11:50:30.371Z,15.70
2019-04-13T11:53:16.834Z,17.77
2019-04-13T11:56:05.060Z,16.80
2019-04-13T11:58:51.734Z,16.70
2019-04-13T12:01:56.214Z,16.93
2019-04-13T12:04:52.293Z,17.20
2019-04-13T12:07:44.869Z,15.23
2019-04-13T12:10:43.626Z,15.80
2019-04-13T12:13:40.434Z,15.07
2019-04-13T12:16:46.315Z,16.57
2019-04-13T12:19:41.914Z,15.00
2019-04-13T12:22:30.994Z,16.50
2019-04-13T12:25:17.214Z,16.53
2019-04-13T12:28:03.836Z,16.17
2019-04-13T12:30:50.534Z,15.50
2019-04-13T12:33:37.094Z,14.87
2019-04-13T12:36:24.888Z,15.87
2019-04-13T12:39:11.334Z,14.97
2019-04-13T12:42:01.621Z,16.50
2019-04-13T12:44:50.150Z,19.30
2019-04-13T12:47:36.174Z,16.73
2019-04-13T12:50:22.674Z,16.60
2019-04-13T12:53:08.777Z,16.23
2019-04-13T12:55:56.339Z,17.53
2019-04-13T12:58:43.101Z,15.97
2019-04-13T13:01:47.376Z,15.20
2019-04-13T13:04:39.974Z,13.90
2019-04-13T13:07:26.353Z,18.20
2019-04-13T13:10:15.308Z,17.30
2019-04-13T13:13:00.956Z,17.60
2019-04-13T13:15:47.294Z,17.13
2019-04-13T13:18:33.874Z,17.23
2019-04-13T13:21:19.973Z,15.70
2019-04-13T13:24:06.177Z,15.73
2019-04-13T13:26:53.036Z,16.90
2019-04-13T13:29:39.493Z,15.33
2019-04-13T13:32:25.515Z,18.87
2019-04-13T13:35:11.616Z,17.60
2019-04-13T13:37:58.158Z,19.77
2019-04-13T13:40:44.299Z,19.13
2019-04-13T13:43:30.315Z,21.43
2019-04-13T13:46:16.971Z,20.20
2019-04-13T13:49:03.433Z,19.93
2019-04-13T13:51:55.934Z,16.83
2019-04-13T13:54:38.116Z,16.27
2019-04-13T13:57:24.320Z,17.00
2019-04-13T14:00:13.674Z,16.30
2019-04-13T14:02:59.994Z,17.30
2019-04-13T14:05:46.234Z,17.03
2019-04-13T14:08:32.434Z,17.43
2019-04-13T14:11:18.553Z,17.53
2019-04-13T14:14:05.115Z,17.03
2019-04-13T14:16:51.250Z,16.67
2019-04-13T14:19:37.814Z,16.47
2019-04-13T14:22:23.932Z,18.50
2019-04-13T14:25:10.995Z,17.10
2019-04-13T14:27:57.194Z,17.63
2019-04-13T14:30:43.708Z,22.77
2019-04-13T14:33:29.854Z,21.33
2019-04-13T14:36:15.993Z,19.60
2019-04-13T14:39:03.674Z,22.53
2019-04-13T14:41:51.798Z,20.73
2019-04-13T14:44:37.719Z,18.93
2019-04-13T14:47:24.034Z,19.13
2019-04-13T14:50:10.134Z,17.10
2019-04-13T14:52:56.875Z,17.20
2019-04-13T14:55:42.996Z,18.30
2019-04-13T14:58:32.033Z,18.93
2019-04-13T15:01:18.314Z,19.17
2019-04-13T15:04:04.453Z,19.33
2019-04-13T15:06:52.232Z,16.77
2019-04-13T15:09:39.273Z,17.20
2019-04-13T15:12:25.874Z,17.30
2019-04-13T15:15:13.564Z,17.13
2019-04-13T15:18:14.360Z,16.40
2019-04-13T15:21:00.356Z,16.33
2019-04-13T15:23:47.349Z,15.27
2019-04-13T15:26:36.987Z,15.47
2019-04-13T15:29:24.633Z,15.23
2019-04-13T15:32:10.794Z,13.80
2019-04-13T15:34:57.663Z,15.23
2019-04-13T15:37:47.210Z,13.93
2019-04-13T15:40:34.067Z,16.27
2019-04-13T15:43:26.047Z,15.03
2019-04-13T15:46:09.232Z,16.00
2019-04-13T15:48:56.818Z,16.00
2019-04-13T15:51:47.729Z,17.03
2019-04-13T15:54:35.035Z,17.03
2019-04-13T15:57:22.153Z,18.53
2019-04-13T16:00:08.990Z,16.00
2019-04-13T16:02:56.363Z,16.23
2019-04-13T16:05:43.128Z,15.77
2019-04-13T16:08:32.752Z,15.93
2019-04-13T16:11:42.335Z,14.53
2019-04-13T16:14:18.653Z,16.37
2019-04-13T16:17:05.635Z,15.47
2019-04-13T16:19:52.408Z,13.50
2019-04-13T16:22:38.873Z,14.07
2019-04-13T16:25:25.010Z,14.80
2019-04-13T16:28:30.791Z,11.83
2019-04-13T16:31:37.568Z,14.60
2019-04-13T16:34:49.175Z,13.53
2019-04-13T16:37:42.068Z,10.17
2019-04-13T16:40:29.207Z,12.37
2019-04-13T16:43:16.373Z,13.77
2019-04-13T16:46:12.034Z,13.60
2019-04-13T16:49:14.666Z,13.00
2019-04-13T16:52:26.072Z,14.23
2019-04-13T16:55:28.857Z,13.13
2019-04-13T16:58:38.520Z,13.33
2019-04-13T17:01:48.121Z,14.23
2019-04-13T17:04:40.578Z,14.27
2019-04-13T17:07:27.215Z,14.10
2019-04-13T17:10:14.737Z,13.73
2019-04-13T17:13:01.173Z,15.13
2019-04-13T17:15:48.366Z,13.67
2019-04-13T17:18:52.693Z,15.40
2019-04-13T17:22:05.303Z,14.43
2019-04-13T17:25:12.284Z,15.40
2019-04-13T17:28:15.557Z,14.47
2019-04-13T17:31:19.814Z,15.30
2019-04-13T17:34:34.494Z,15.83
2019-04-13T17:37:21.260Z,16.07
2019-04-13T17:40:09.181Z,14.77
2019-04-13T17:43:13.838Z,16.83
2019-04-13T17:46:22.794Z,16.27
2019-04-13T17:49:46.434Z,15.80
2019-04-13T17:52:51.173Z,16.77
2019-04-13T17:55:46.190Z,16.47
2019-04-13T17:58:49.115Z,17.60
2019-04-13T18:01:53.853Z,17.20
2019-04-13T18:05:06.580Z,17.10
2019-04-13T18:08:15.897Z,17.63
2019-04-13T18:11:17.480Z,17.40
2019-04-13T18:14:15.254Z,18.03
2019-04-13T18:17:17.944Z,17.50
2019-04-13T18:20:05.102Z,17.20
2019-04-13T18:22:51.557Z,16.70
2019-04-13T18:25:44.142Z,16.50
2019-04-13T18:28:27.275Z,17.97
2019-04-13T18:31:14.895Z,17.03
2019-04-13T18:34:01.905Z,17.80
2019-04-13T18:36:48.680Z,17.57
2019-04-13T18:39:36.406Z,19.10
2019-04-13T18:42:22.514Z,19.67
2019-04-13T18:45:08.796Z,16.80
2019-04-13T18:47:55.598Z,16.30
2019-04-13T18:50:43.297Z,18.77
2019-04-13T18:53:29.964Z,20.23
2019-04-13T18:56:16.775Z,19.30
2019-04-13T18:59:04.428Z,17.17
2019-04-13T19:01:51.645Z,17.47
2019-04-13T19:04:38.494Z,18.57
2019-04-13T19:07:24.634Z,17.37
2019-04-13T19:10:11.221Z,18.83
2019-04-13T19:13:03.827Z,19.77
2019-04-13T19:15:46.014Z,20.57
2019-04-13T19:18:31.974Z,25.20
2019-04-13T19:21:18.175Z,23.67
2019-04-13T19:24:06.954Z,24.33
2019-04-13T19:26:53.308Z,22.53
2019-04-13T19:29:39.414Z,22.60
2019-04-13T19:32:28.434Z,23.93
2019-04-13T19:35:15.734Z,21.20
2019-04-13T19:38:02.073Z,21.33
2019-04-13T19:40:51.253Z,21.30
2019-04-13T19:43:37.508Z,21.63
2019-04-13T19:46:24.193Z,21.27
2019-04-13T19:49:10.654Z,20.13
2019-04-13T19:52:09.358Z,18.43
2019-04-13T19:54:55.894Z,20.03
2019-04-13T19:57:44.817Z,19.70
2019-04-13T20:00:36.616Z,19.20
2019-04-13T20:03:22.794Z,19.60
2019-04-13T20:06:18.770Z,18.90
2019-04-13T20:09:06.174Z,20.10
2019-04-13T20:11:55.654Z,20.00
2019-04-13T20:14:42.118Z,21.37
2019-04-13T20:17:30.855Z,20.70
2019-04-13T20:20:21.294Z,21.93
2019-04-13T20:23:08.182Z,21.47
2019-04-13T20:25:57.619Z,22.70
2019-04-13T20:28:44.433Z,22.87
2019-04-13T20:31:31.189Z,22.17
2019-04-13T20:34:20.592Z,23.30
2019-04-13T20:37:09.972Z,23.20
2019-04-13T20:40:05.650Z,24.50
2019-04-13T20:42:52.593Z,25.67
2019-04-13T20:45:39.744Z,22.90
2019-04-13T20:48:27.143Z,24.37
2019-04-13T20:51:14.964Z,24.70
2019-04-13T20:54:01.757Z,24.73
2019-04-13T20:56:48.990Z,22.87
2019-04-13T20:59:36.752Z,24.43
2019-04-13T21:02:24.435Z,24.23
2019-04-13T21:05:12.106Z,24.40
2019-04-13T21:07:58.301Z,22.77
2019-04-13T21:10:44.414Z,23.47
2019-04-13T21:13:31.703Z,23.63
2019-04-13T21:16:19.268Z,21.37
2019-04-13T21:19:06.891Z,21.83
2019-04-13T21:21:58.480Z,22.10
2019-04-13T21:24:45.922Z,21.53
2019-04-13T21:27:33.522Z,20.67
2019-04-13T21:30:20.788Z,20.30
2019-04-13T21:33:08.261Z,19.90
2019-04-13T21:35:55.782Z,21.57
2019-04-13T21:38:43.128Z,21.07
2019-04-13T21:41:30.296Z,20.40
2019-04-13T21:44:26.518Z,19.37
2019-04-13T21:47:07.548Z,19.57
2019-04-13T21:49:55.854Z,20.13
2019-04-13T21:52:47.705Z,20.30
2019-04-13T21:55:36.056Z,18.87
2019-04-13T21:58:22.870Z,18.17
2019-04-13T22:01:34.571Z,17.43
2019-04-13T22:04:21.927Z,17.93
2019-04-13T22:07:11.594Z,17.00
2019-04-13T22:09:58.672Z,18.40
2019-04-13T22:12:45.994Z,17.63
2019-04-13T22:15:33.194Z,19.17
2019-04-13T22:18:19.875Z,18.13
2019-04-13T22:21:09.090Z,18.20
2019-04-13T22:23:56.356Z,18.17
2019-04-13T22:26:43.627Z,18.27
2019-04-13T22:29:38.313Z,17.57
2019-04-13T22:32:33.976Z,19.13
2019-04-13T22:35:41.071Z,18.80
2019-04-13T22:38:28.250Z,20.50
2019-04-13T22:41:15.596Z,21.53
2019-04-13T22:44:03.064Z,21.57
2019-04-13T22:46:50.555Z,21.07
2019-04-13T22:50:00.355Z,21.47
2019-04-13T22:53:21.566Z,21.80
2019-04-13T22:56:28.671Z,19.63
2019-04-13T22:59:16.038Z,22.07
2019-04-13T23:02:14.631Z,21.70
2019-04-13T23:05:00.834Z,22.00
2019-04-13T23:07:47.844Z,21.40
2019-04-13T23:10:35.409Z,20.00
2019-04-13T23:13:23.172Z,18.57
2019-04-13T23:16:10.617Z,18.13
2019-04-13T23:18:57.967Z,20.17
2019-04-13T23:21:46.054Z,20.60
2019-04-13T23:24:33.589Z,19.00
2019-04-13T23:27:22.010Z,20.07
2019-04-13T23:30:09.521Z,21.73
2019-04-13T23:32:56.058Z,20.83
2019-04-13T23:35:43.013Z,19.87
2019-04-13T23:38:29.427Z,20.67
2019-04-13T23:41:16.782Z,22.47
2019-04-13T23:44:04.737Z,21.60
2019-04-13T23:46:52.334Z,21.03
2019-04-13T23:49:38.833Z,21.87
2019-04-13T23:52:26.059Z,20.60
2019-04-13T23:55:14.000Z,20.50
2019-04-13T23:58:19.956Z,20.90
